sensor_id;sensor_type;location;lat;lon;timestamp;P1;durP1;ratioP1;P2;durP2;ratioP2
11777;SDS011;5946;51.770;8.548;2023-03-23T00:01:10;6.30;;;2.77;;
11777;SDS011;5946;51.770;8.548;2023-03-23T00:03:38;5.80;;;2.70;;
11777;SDS011;5946;51.770;8.548;2023-03-23T00:06:04;3.10;;;2.50;;
11777;SDS011;5946;51.770;8.548;2023-03-23T00:08:34;2.87;;;2.37;;
11777;SDS011;5946;51.770;8.548;2023-03-23T00:11:09;4.50;;;2.53;;
11777;SDS011;5946;51.770;8.548;2023-03-23T00:13:35;5.20;;;3.07;;
11777;SDS011;5946;51.770;8.548;2023-03-23T00:16:02;4.47;;;2.33;;
11777;SDS011;5946;51.770;8.548;2023-03-23T00:18:28;3.30;;;2.47;;
11777;SDS011;5946;51.770;8.548;2023-03-23T00:20:55;6.27;;;2.50;;
11777;SDS011;5946;51.770;8.548;2023-03-23T00:23:24;4.47;;;2.33;;
11777;SDS011;5946;51.770;8.548;2023-03-23T00:25:52;4.83;;;2.50;;
11777;SDS011;5946;51.770;8.548;2023-03-23T00:28:18;6.07;;;2.47;;
11777;SDS011;5946;51.770;8.548;2023-03-23T00:31:00;2.63;;;2.17;;
11777;SDS011;5946;51.770;8.548;2023-03-23T00:33:26;5.17;;;2.70;;
11777;SDS011;5946;51.770;8.548;2023-03-23T00:35:53;6.20;;;2.30;;
11777;SDS011;5946;51.770;8.548;2023-03-23T00:38:20;4.47;;;2.60;;
11777;SDS011;5946;51.770;8.548;2023-03-23T00:40:46;3.93;;;2.13;;
11777;SDS011;5946;51.770;8.548;2023-03-23T00:43:13;3.60;;;2.40;;
11777;SDS011;5946;51.770;8.548;2023-03-23T00:45:40;4.43;;;2.20;;
11777;SDS011;5946;51.770;8.548;2023-03-23T00:48:06;2.77;;;2.43;;
11777;SDS011;5946;51.770;8.548;2023-03-23T00:50:32;3.73;;;2.50;;
11777;SDS011;5946;51.770;8.548;2023-03-23T00:52:58;3.67;;;2.50;;
11777;SDS011;5946;51.770;8.548;2023-03-23T00:55:24;3.60;;;2.53;;
11777;SDS011;5946;51.770;8.548;2023-03-23T00:57:51;4.13;;;2.17;;
11777;SDS011;5946;51.770;8.548;2023-03-23T01:00:17;4.70;;;2.30;;
11777;SDS011;5946;51.770;8.548;2023-03-23T01:02:44;3.17;;;2.20;;
11777;SDS011;5946;51.770;8.548;2023-03-23T01:05:11;4.23;;;2.50;;
11777;SDS011;5946;51.770;8.548;2023-03-23T01:07:37;3.73;;;2.43;;
11777;SDS011;5946;51.770;8.548;2023-03-23T01:10:04;3.93;;;2.43;;
11777;SDS011;5946;51.770;8.548;2023-03-23T01:12:30;4.60;;;2.50;;
11777;SDS011;5946;51.770;8.548;2023-03-23T01:14:56;3.67;;;2.40;;
11777;SDS011;5946;51.770;8.548;2023-03-23T01:17:22;4.97;;;2.37;;
11777;SDS011;5946;51.770;8.548;2023-03-23T01:19:48;4.37;;;2.57;;
11777;SDS011;5946;51.770;8.548;2023-03-23T01:22:14;4.40;;;2.13;;
11777;SDS011;5946;51.770;8.548;2023-03-23T01:24:40;3.60;;;2.63;;
11777;SDS011;5946;51.770;8.548;2023-03-23T01:27:06;4.53;;;2.70;;
11777;SDS011;5946;51.770;8.548;2023-03-23T01:29:33;5.03;;;2.70;;
11777;SDS011;5946;51.770;8.548;2023-03-23T01:31:59;4.23;;;2.63;;
11777;SDS011;5946;51.770;8.548;2023-03-23T01:34:25;3.60;;;2.43;;
11777;SDS011;5946;51.770;8.548;2023-03-23T01:36:50;8.10;;;3.10;;
11777;SDS011;5946;51.770;8.548;2023-03-23T01:39:17;4.00;;;2.80;;
11777;SDS011;5946;51.770;8.548;2023-03-23T01:41:43;4.33;;;2.50;;
11777;SDS011;5946;51.770;8.548;2023-03-23T01:46:42;6.43;;;2.87;;
11777;SDS011;5946;51.770;8.548;2023-03-23T01:49:09;5.23;;;2.93;;
11777;SDS011;5946;51.770;8.548;2023-03-23T01:51:37;5.57;;;3.03;;
11777;SDS011;5946;51.770;8.548;2023-03-23T01:54:06;5.60;;;2.83;;
11777;SDS011;5946;51.770;8.548;2023-03-23T01:56:38;4.20;;;3.00;;
11777;SDS011;5946;51.770;8.548;2023-03-23T01:59:06;5.73;;;2.80;;
11777;SDS011;5946;51.770;8.548;2023-03-23T02:01:32;4.00;;;2.90;;
11777;SDS011;5946;51.770;8.548;2023-03-23T02:04:01;5.37;;;2.60;;
11777;SDS011;5946;51.770;8.548;2023-03-23T02:06:27;5.13;;;3.07;;
11777;SDS011;5946;51.770;8.548;2023-03-23T02:08:53;4.20;;;2.83;;
11777;SDS011;5946;51.770;8.548;2023-03-23T02:11:21;5.57;;;3.00;;
11777;SDS011;5946;51.770;8.548;2023-03-23T02:13:47;5.53;;;2.80;;
11777;SDS011;5946;51.770;8.548;2023-03-23T02:16:16;4.83;;;2.90;;
11777;SDS011;5946;51.770;8.548;2023-03-23T02:18:53;4.10;;;2.80;;
11777;SDS011;5946;51.770;8.548;2023-03-23T02:21:30;8.33;;;2.53;;
11777;SDS011;5946;51.770;8.548;2023-03-23T02:34:29;8.57;;;3.60;;
11777;SDS011;5946;51.770;8.548;2023-03-23T02:37:00;4.50;;;3.10;;
11777;SDS011;5946;51.770;8.548;2023-03-23T02:39:30;6.53;;;3.43;;
11777;SDS011;5946;51.770;8.548;2023-03-23T02:44:29;8.50;;;3.40;;
11777;SDS011;5946;51.770;8.548;2023-03-23T02:46:57;5.47;;;3.20;;
11777;SDS011;5946;51.770;8.548;2023-03-23T02:49:25;5.27;;;3.23;;
11777;SDS011;5946;51.770;8.548;2023-03-23T02:51:52;4.90;;;3.43;;
11777;SDS011;5946;51.770;8.548;2023-03-23T02:54:18;6.80;;;3.73;;
11777;SDS011;5946;51.770;8.548;2023-03-23T02:56:47;6.57;;;3.90;;
11777;SDS011;5946;51.770;8.548;2023-03-23T02:59:13;10.40;;;4.07;;
11777;SDS011;5946;51.770;8.548;2023-03-23T03:04:06;8.47;;;4.57;;
11777;SDS011;5946;51.770;8.548;2023-03-23T03:11:28;6.90;;;4.57;;
11777;SDS011;5946;51.770;8.548;2023-03-23T03:13:58;7.03;;;4.50;;
11777;SDS011;5946;51.770;8.548;2023-03-23T03:16:27;5.70;;;4.20;;
11777;SDS011;5946;51.770;8.548;2023-03-23T03:19:12;9.23;;;4.67;;
11777;SDS011;5946;51.770;8.548;2023-03-23T03:21:43;8.37;;;4.87;;
11777;SDS011;5946;51.770;8.548;2023-03-23T03:24:10;6.57;;;4.83;;
11777;SDS011;5946;51.770;8.548;2023-03-23T03:26:40;7.97;;;4.90;;
11777;SDS011;5946;51.770;8.548;2023-03-23T03:29:12;7.97;;;4.73;;
11777;SDS011;5946;51.770;8.548;2023-03-23T03:31:39;8.57;;;4.77;;
11777;SDS011;5946;51.770;8.548;2023-03-23T03:34:10;9.27;;;4.67;;
11777;SDS011;5946;51.770;8.548;2023-03-23T03:36:36;4.83;;;4.13;;
11777;SDS011;5946;51.770;8.548;2023-03-23T03:39:07;6.13;;;4.73;;
11777;SDS011;5946;51.770;8.548;2023-03-23T03:41:34;4.83;;;4.43;;
11777;SDS011;5946;51.770;8.548;2023-03-23T03:44:00;5.40;;;4.30;;
11777;SDS011;5946;51.770;8.548;2023-03-23T03:46:26;5.70;;;4.03;;
11777;SDS011;5946;51.770;8.548;2023-03-23T03:48:55;6.00;;;4.03;;
11777;SDS011;5946;51.770;8.548;2023-03-23T03:51:21;5.87;;;3.93;;
11777;SDS011;5946;51.770;8.548;2023-03-23T03:53:47;5.60;;;3.80;;
11777;SDS011;5946;51.770;8.548;2023-03-23T03:56:13;4.47;;;3.23;;
11777;SDS011;5946;51.770;8.548;2023-03-23T03:58:39;4.50;;;3.30;;
11777;SDS011;5946;51.770;8.548;2023-03-23T04:01:07;2.73;;;2.53;;
11777;SDS011;5946;51.770;8.548;2023-03-23T04:03:35;3.97;;;3.00;;
11777;SDS011;5946;51.770;8.548;2023-03-23T04:06:01;4.57;;;2.93;;
11777;SDS011;5946;51.770;8.548;2023-03-23T04:08:27;5.90;;;2.90;;
11777;SDS011;5946;51.770;8.548;2023-03-23T04:10:53;2.77;;;2.57;;
11777;SDS011;5946;51.770;8.548;2023-03-23T04:13:19;2.80;;;2.60;;
11777;SDS011;5946;51.770;8.548;2023-03-23T04:15:46;4.17;;;2.40;;
11777;SDS011;5946;51.770;8.548;2023-03-23T04:18:12;2.83;;;2.10;;
11777;SDS011;5946;51.770;8.548;2023-03-23T04:20:40;4.23;;;2.70;;
11777;SDS011;5946;51.770;8.548;2023-03-23T04:23:06;2.63;;;2.43;;
11777;SDS011;5946;51.770;8.548;2023-03-23T04:25:32;3.37;;;2.90;;
11777;SDS011;5946;51.770;8.548;2023-03-23T04:27:59;3.53;;;2.60;;
11777;SDS011;5946;51.770;8.548;2023-03-23T04:30:26;2.37;;;2.17;;
11777;SDS011;5946;51.770;8.548;2023-03-23T04:32:52;3.30;;;2.60;;
11777;SDS011;5946;51.770;8.548;2023-03-23T04:35:23;2.67;;;2.20;;
11777;SDS011;5946;51.770;8.548;2023-03-23T04:37:54;4.27;;;2.40;;
11777;SDS011;5946;51.770;8.548;2023-03-23T04:40:20;2.73;;;2.23;;
11777;SDS011;5946;51.770;8.548;2023-03-23T04:42:46;4.07;;;2.00;;
11777;SDS011;5946;51.770;8.548;2023-03-23T04:45:14;2.87;;;2.20;;
11777;SDS011;5946;51.770;8.548;2023-03-23T04:47:40;2.50;;;2.00;;
11777;SDS011;5946;51.770;8.548;2023-03-23T04:50:08;2.70;;;2.00;;
11777;SDS011;5946;51.770;8.548;2023-03-23T04:52:34;2.60;;;2.10;;
11777;SDS011;5946;51.770;8.548;2023-03-23T04:55:02;3.10;;;1.90;;
11777;SDS011;5946;51.770;8.548;2023-03-23T04:57:28;3.47;;;2.07;;
11777;SDS011;5946;51.770;8.548;2023-03-23T04:59:54;3.27;;;2.00;;
11777;SDS011;5946;51.770;8.548;2023-03-23T05:02:20;2.60;;;2.10;;
11777;SDS011;5946;51.770;8.548;2023-03-23T05:04:46;2.90;;;1.97;;
11777;SDS011;5946;51.770;8.548;2023-03-23T05:07:13;3.47;;;2.30;;
11777;SDS011;5946;51.770;8.548;2023-03-23T05:09:40;2.63;;;2.13;;
11777;SDS011;5946;51.770;8.548;2023-03-23T05:12:06;3.40;;;2.50;;
11777;SDS011;5946;51.770;8.548;2023-03-23T05:14:33;4.23;;;2.70;;
11777;SDS011;5946;51.770;8.548;2023-03-23T05:16:59;3.40;;;2.40;;
11777;SDS011;5946;51.770;8.548;2023-03-23T05:19:25;2.50;;;2.13;;
11777;SDS011;5946;51.770;8.548;2023-03-23T05:21:52;2.30;;;2.10;;
11777;SDS011;5946;51.770;8.548;2023-03-23T05:24:19;5.53;;;2.57;;
11777;SDS011;5946;51.770;8.548;2023-03-23T05:26:45;4.63;;;2.77;;
11777;SDS011;5946;51.770;8.548;2023-03-23T05:29:13;4.33;;;2.80;;
11777;SDS011;5946;51.770;8.548;2023-03-23T05:31:39;3.40;;;2.30;;
11777;SDS011;5946;51.770;8.548;2023-03-23T05:34:05;3.53;;;2.27;;
11777;SDS011;5946;51.770;8.548;2023-03-23T05:36:31;3.23;;;2.27;;
11777;SDS011;5946;51.770;8.548;2023-03-23T05:38:57;7.53;;;2.47;;
11777;SDS011;5946;51.770;8.548;2023-03-23T05:41:26;2.40;;;2.17;;
11777;SDS011;5946;51.770;8.548;2023-03-23T05:43:51;3.07;;;2.30;;
11777;SDS011;5946;51.770;8.548;2023-03-23T05:46:17;3.40;;;2.33;;
11777;SDS011;5946;51.770;8.548;2023-03-23T05:48:43;3.13;;;2.37;;
11777;SDS011;5946;51.770;8.548;2023-03-23T05:51:09;3.07;;;2.50;;
11777;SDS011;5946;51.770;8.548;2023-03-23T05:53:35;2.13;;;1.90;;
11777;SDS011;5946;51.770;8.548;2023-03-23T05:56:02;3.53;;;2.00;;
11777;SDS011;5946;51.770;8.548;2023-03-23T05:58:28;3.60;;;2.47;;
11777;SDS011;5946;51.770;8.548;2023-03-23T06:00:54;3.13;;;2.40;;
11777;SDS011;5946;51.770;8.548;2023-03-23T06:03:21;3.63;;;2.20;;
11777;SDS011;5946;51.770;8.548;2023-03-23T06:05:47;3.73;;;2.10;;
11777;SDS011;5946;51.770;8.548;2023-03-23T06:08:13;2.67;;;2.00;;
11777;SDS011;5946;51.770;8.548;2023-03-23T06:10:39;2.63;;;2.13;;
11777;SDS011;5946;51.770;8.548;2023-03-23T06:13:05;2.67;;;2.20;;
11777;SDS011;5946;51.770;8.548;2023-03-23T06:15:32;4.03;;;2.10;;
11777;SDS011;5946;51.770;8.548;2023-03-23T06:17:58;3.80;;;2.40;;
11777;SDS011;5946;51.770;8.548;2023-03-23T06:20:24;3.00;;;2.60;;
11777;SDS011;5946;51.770;8.548;2023-03-23T06:22:50;5.33;;;2.30;;
11777;SDS011;5946;51.770;8.548;2023-03-23T06:25:19;3.20;;;2.60;;
11777;SDS011;5946;51.770;8.548;2023-03-23T06:27:45;3.27;;;2.30;;
11777;SDS011;5946;51.770;8.548;2023-03-23T06:30:11;2.60;;;2.40;;
11777;SDS011;5946;51.770;8.548;2023-03-23T06:32:39;3.73;;;2.50;;
11777;SDS011;5946;51.770;8.548;2023-03-23T06:35:06;2.60;;;2.30;;
11777;SDS011;5946;51.770;8.548;2023-03-23T06:37:34;4.30;;;2.67;;
11777;SDS011;5946;51.770;8.548;2023-03-23T06:40:00;2.80;;;2.33;;
11777;SDS011;5946;51.770;8.548;2023-03-23T06:42:26;4.30;;;2.47;;
11777;SDS011;5946;51.770;8.548;2023-03-23T06:44:52;2.70;;;2.50;;
11777;SDS011;5946;51.770;8.548;2023-03-23T06:47:21;2.27;;;2.07;;
11777;SDS011;5946;51.770;8.548;2023-03-23T06:49:48;2.93;;;2.40;;
11777;SDS011;5946;51.770;8.548;2023-03-23T06:52:14;4.37;;;2.10;;
11777;SDS011;5946;51.770;8.548;2023-03-23T06:54:40;3.57;;;2.50;;
11777;SDS011;5946;51.770;8.548;2023-03-23T06:57:07;3.10;;;2.60;;
11777;SDS011;5946;51.770;8.548;2023-03-23T06:59:33;3.07;;;2.20;;
11777;SDS011;5946;51.770;8.548;2023-03-23T07:01:59;2.80;;;2.10;;
11777;SDS011;5946;51.770;8.548;2023-03-23T07:04:25;6.20;;;2.27;;
11777;SDS011;5946;51.770;8.548;2023-03-23T07:06:51;4.70;;;2.60;;
11777;SDS011;5946;51.770;8.548;2023-03-23T07:09:17;4.10;;;2.20;;
11777;SDS011;5946;51.770;8.548;2023-03-23T07:11:43;3.63;;;2.40;;
11777;SDS011;5946;51.770;8.548;2023-03-23T07:14:09;5.57;;;3.10;;
11777;SDS011;5946;51.770;8.548;2023-03-23T07:16:35;5.00;;;2.73;;
11777;SDS011;5946;51.770;8.548;2023-03-23T07:19:01;2.67;;;2.20;;
11777;SDS011;5946;51.770;8.548;2023-03-23T07:21:27;3.47;;;2.27;;
11777;SDS011;5946;51.770;8.548;2023-03-23T07:23:53;3.77;;;2.40;;
11777;SDS011;5946;51.770;8.548;2023-03-23T07:26:19;3.27;;;2.20;;
11777;SDS011;5946;51.770;8.548;2023-03-23T07:28:46;2.23;;;2.03;;
11777;SDS011;5946;51.770;8.548;2023-03-23T07:31:12;3.30;;;2.50;;
11777;SDS011;5946;51.770;8.548;2023-03-23T07:33:38;3.47;;;2.70;;
11777;SDS011;5946;51.770;8.548;2023-03-23T07:36:04;4.63;;;2.60;;
11777;SDS011;5946;51.770;8.548;2023-03-23T07:38:31;3.30;;;2.57;;
11777;SDS011;5946;51.770;8.548;2023-03-23T07:40:57;4.73;;;2.77;;
11777;SDS011;5946;51.770;8.548;2023-03-23T07:43:23;4.23;;;2.43;;
11777;SDS011;5946;51.770;8.548;2023-03-23T07:45:49;3.20;;;2.70;;
11777;SDS011;5946;51.770;8.548;2023-03-23T07:48:15;5.70;;;3.33;;
11777;SDS011;5946;51.770;8.548;2023-03-23T07:50:41;5.33;;;2.93;;
11777;SDS011;5946;51.770;8.548;2023-03-23T07:53:08;4.27;;;2.70;;
11777;SDS011;5946;51.770;8.548;2023-03-23T07:55:34;7.17;;;3.10;;
11777;SDS011;5946;51.770;8.548;2023-03-23T07:58:00;3.60;;;2.53;;
11777;SDS011;5946;51.770;8.548;2023-03-23T08:00:26;4.43;;;2.80;;
11777;SDS011;5946;51.770;8.548;2023-03-23T08:02:54;5.57;;;2.90;;
11777;SDS011;5946;51.770;8.548;2023-03-23T08:05:21;3.10;;;2.50;;
11777;SDS011;5946;51.770;8.548;2023-03-23T08:07:48;5.27;;;2.30;;
11777;SDS011;5946;51.770;8.548;2023-03-23T08:10:15;3.20;;;2.13;;
11777;SDS011;5946;51.770;8.548;2023-03-23T08:12:43;3.87;;;2.20;;
11777;SDS011;5946;51.770;8.548;2023-03-23T08:15:10;6.10;;;2.10;;
11777;SDS011;5946;51.770;8.548;2023-03-23T08:17:40;5.23;;;2.67;;
11777;SDS011;5946;51.770;8.548;2023-03-23T08:20:06;4.20;;;2.47;;
11777;SDS011;5946;51.770;8.548;2023-03-23T08:22:41;5.57;;;2.60;;
11777;SDS011;5946;51.770;8.548;2023-03-23T08:25:08;3.97;;;2.03;;
11777;SDS011;5946;51.770;8.548;2023-03-23T08:27:34;3.70;;;2.27;;
11777;SDS011;5946;51.770;8.548;2023-03-23T08:30:00;3.87;;;2.20;;
11777;SDS011;5946;51.770;8.548;2023-03-23T08:32:26;7.03;;;2.33;;
11777;SDS011;5946;51.770;8.548;2023-03-23T08:34:52;3.90;;;2.57;;
11777;SDS011;5946;51.770;8.548;2023-03-23T08:37:19;4.60;;;2.27;;
11777;SDS011;5946;51.770;8.548;2023-03-23T08:39:45;4.97;;;2.20;;
11777;SDS011;5946;51.770;8.548;2023-03-23T08:42:11;5.90;;;2.60;;
11777;SDS011;5946;51.770;8.548;2023-03-23T08:44:37;7.23;;;2.33;;
11777;SDS011;5946;51.770;8.548;2023-03-23T08:47:03;7.83;;;2.57;;
11777;SDS011;5946;51.770;8.548;2023-03-23T08:49:30;4.83;;;2.30;;
11777;SDS011;5946;51.770;8.548;2023-03-23T08:51:59;3.90;;;2.03;;
11777;SDS011;5946;51.770;8.548;2023-03-23T08:54:25;2.87;;;1.90;;
11777;SDS011;5946;51.770;8.548;2023-03-23T08:56:51;4.63;;;2.23;;
11777;SDS011;5946;51.770;8.548;2023-03-23T08:59:17;5.27;;;2.50;;
11777;SDS011;5946;51.770;8.548;2023-03-23T09:01:43;6.03;;;2.30;;
11777;SDS011;5946;51.770;8.548;2023-03-23T09:04:10;4.80;;;2.20;;
11777;SDS011;5946;51.770;8.548;2023-03-23T09:06:36;5.90;;;2.00;;
11777;SDS011;5946;51.770;8.548;2023-03-23T09:09:03;6.20;;;2.20;;
11777;SDS011;5946;51.770;8.548;2023-03-23T09:11:34;3.83;;;2.10;;
11777;SDS011;5946;51.770;8.548;2023-03-23T09:14:00;4.67;;;1.80;;
11777;SDS011;5946;51.770;8.548;2023-03-23T09:16:27;3.03;;;1.93;;
11777;SDS011;5946;51.770;8.548;2023-03-23T09:18:53;4.17;;;2.27;;
11777;SDS011;5946;51.770;8.548;2023-03-23T09:21:21;4.57;;;2.17;;
11777;SDS011;5946;51.770;8.548;2023-03-23T09:23:47;3.57;;;2.17;;
11777;SDS011;5946;51.770;8.548;2023-03-23T09:26:14;3.50;;;2.20;;
11777;SDS011;5946;51.770;8.548;2023-03-23T09:28:40;5.97;;;2.50;;
11777;SDS011;5946;51.770;8.548;2023-03-23T09:31:06;4.70;;;2.13;;
11777;SDS011;5946;51.770;8.548;2023-03-23T09:33:32;7.70;;;2.20;;
11777;SDS011;5946;51.770;8.548;2023-03-23T09:35:58;6.37;;;2.30;;
11777;SDS011;5946;51.770;8.548;2023-03-23T09:38:25;7.23;;;2.77;;
11777;SDS011;5946;51.770;8.548;2023-03-23T09:43:40;4.07;;;1.90;;
11777;SDS011;5946;51.770;8.548;2023-03-23T09:46:17;3.27;;;1.80;;
11777;SDS011;5946;51.770;8.548;2023-03-23T09:48:51;7.10;;;2.30;;
11777;SDS011;5946;51.770;8.548;2023-03-23T09:53:54;3.67;;;2.00;;
11777;SDS011;5946;51.770;8.548;2023-03-23T09:56:21;5.17;;;2.17;;
11777;SDS011;5946;51.770;8.548;2023-03-23T09:58:52;4.63;;;2.37;;
11777;SDS011;5946;51.770;8.548;2023-03-23T10:01:21;5.77;;;2.17;;
11777;SDS011;5946;51.770;8.548;2023-03-23T10:03:50;3.57;;;2.07;;
11777;SDS011;5946;51.770;8.548;2023-03-23T10:06:18;8.37;;;2.67;;
11777;SDS011;5946;51.770;8.548;2023-03-23T10:08:46;6.27;;;2.10;;
11777;SDS011;5946;51.770;8.548;2023-03-23T10:11:24;6.03;;;2.20;;
11777;SDS011;5946;51.770;8.548;2023-03-23T10:13:56;4.03;;;2.33;;
11777;SDS011;5946;51.770;8.548;2023-03-23T10:16:26;5.63;;;2.00;;
11777;SDS011;5946;51.770;8.548;2023-03-23T10:18:56;5.77;;;2.20;;
11777;SDS011;5946;51.770;8.548;2023-03-23T10:21:24;6.50;;;2.43;;
11777;SDS011;5946;51.770;8.548;2023-03-23T10:31:51;9.70;;;2.80;;
11777;SDS011;5946;51.770;8.548;2023-03-23T10:34:23;6.50;;;2.50;;
11777;SDS011;5946;51.770;8.548;2023-03-23T10:37:12;4.50;;;2.33;;
11777;SDS011;5946;51.770;8.548;2023-03-23T10:42:35;5.07;;;2.30;;
11777;SDS011;5946;51.770;8.548;2023-03-23T10:45:36;4.63;;;2.40;;
11777;SDS011;5946;51.770;8.548;2023-03-23T10:50:34;8.20;;;3.00;;
11777;SDS011;5946;51.770;8.548;2023-03-23T10:53:00;4.33;;;2.50;;
11777;SDS011;5946;51.770;8.548;2023-03-23T10:55:37;6.17;;;2.70;;
11777;SDS011;5946;51.770;8.548;2023-03-23T10:58:09;8.90;;;2.80;;
11777;SDS011;5946;51.770;8.548;2023-03-23T11:00:45;7.83;;;2.63;;
11777;SDS011;5946;51.770;8.548;2023-03-23T11:08:12;8.53;;;2.70;;
11777;SDS011;5946;51.770;8.548;2023-03-23T11:10:39;5.57;;;2.37;;
11777;SDS011;5946;51.770;8.548;2023-03-23T11:13:10;11.70;;;3.03;;
11777;SDS011;5946;51.770;8.548;2023-03-23T11:15:39;7.57;;;2.30;;
11777;SDS011;5946;51.770;8.548;2023-03-23T11:18:08;6.93;;;2.50;;
11777;SDS011;5946;51.770;8.548;2023-03-23T11:20:36;10.20;;;2.60;;
11777;SDS011;5946;51.770;8.548;2023-03-23T11:23:38;5.77;;;2.33;;
11777;SDS011;5946;51.770;8.548;2023-03-23T11:25:58;7.23;;;2.73;;
11777;SDS011;5946;51.770;8.548;2023-03-23T11:28:29;8.50;;;3.03;;
11777;SDS011;5946;51.770;8.548;2023-03-23T11:30:57;5.90;;;2.93;;
11777;SDS011;5946;51.770;8.548;2023-03-23T11:33:23;10.53;;;3.07;;
11777;SDS011;5946;51.770;8.548;2023-03-23T11:35:50;5.37;;;2.30;;
11777;SDS011;5946;51.770;8.548;2023-03-23T11:38:18;8.83;;;2.87;;
11777;SDS011;5946;51.770;8.548;2023-03-23T11:40:49;3.10;;;1.00;;
11777;SDS011;5946;51.770;8.548;2023-03-23T11:43:20;2.40;;;1.43;;
11777;SDS011;5946;51.770;8.548;2023-03-23T11:45:56;5.57;;;1.20;;
11777;SDS011;5946;51.770;8.548;2023-03-23T11:50:55;3.20;;;1.00;;
11777;SDS011;5946;51.770;8.548;2023-03-23T11:58:26;3.07;;;1.27;;
11777;SDS011;5946;51.770;8.548;2023-03-23T12:00:58;1.73;;;1.00;;
11777;SDS011;5946;51.770;8.548;2023-03-23T12:06:10;2.30;;;1.10;;
11777;SDS011;5946;51.770;8.548;2023-03-23T12:11:20;1.57;;;1.00;;
11777;SDS011;5946;51.770;8.548;2023-03-23T12:14:07;2.73;;;1.10;;
11777;SDS011;5946;51.770;8.548;2023-03-23T12:16:43;2.77;;;1.10;;
11777;SDS011;5946;51.770;8.548;2023-03-23T12:27:06;2.33;;;1.00;;
11777;SDS011;5946;51.770;8.548;2023-03-23T12:29:57;3.93;;;1.10;;
11777;SDS011;5946;51.770;8.548;2023-03-23T12:32:49;2.40;;;1.00;;
11777;SDS011;5946;51.770;8.548;2023-03-23T12:35:14;1.90;;;0.90;;
11777;SDS011;5946;51.770;8.548;2023-03-23T12:50:29;2.37;;;1.00;;
11777;SDS011;5946;51.770;8.548;2023-03-23T12:53:06;1.87;;;1.00;;
11777;SDS011;5946;51.770;8.548;2023-03-23T12:55:40;3.17;;;1.13;;
11777;SDS011;5946;51.770;8.548;2023-03-23T12:58:10;1.80;;;1.03;;
11777;SDS011;5946;51.770;8.548;2023-03-23T13:00:48;4.07;;;1.17;;
11777;SDS011;5946;51.770;8.548;2023-03-23T13:03:20;3.30;;;1.47;;
11777;SDS011;5946;51.770;8.548;2023-03-23T13:05:47;2.50;;;1.27;;
11777;SDS011;5946;51.770;8.548;2023-03-23T13:08:42;3.13;;;1.40;;
11777;SDS011;5946;51.770;8.548;2023-03-23T13:11:18;3.20;;;1.63;;
11777;SDS011;5946;51.770;8.548;2023-03-23T13:13:45;4.70;;;2.10;;
11777;SDS011;5946;51.770;8.548;2023-03-23T13:18:41;6.23;;;2.47;;
11777;SDS011;5946;51.770;8.548;2023-03-23T13:23:52;3.63;;;2.10;;
11777;SDS011;5946;51.770;8.548;2023-03-23T13:26:20;3.40;;;2.37;;
11777;SDS011;5946;51.770;8.548;2023-03-23T13:31:23;5.50;;;3.20;;
11777;SDS011;5946;51.770;8.548;2023-03-23T13:33:57;3.97;;;2.70;;
11777;SDS011;5946;51.770;8.548;2023-03-23T13:36:44;5.67;;;2.80;;
11777;SDS011;5946;51.770;8.548;2023-03-23T13:39:21;4.83;;;3.13;;
11777;SDS011;5946;51.770;8.548;2023-03-23T13:41:59;5.87;;;3.40;;
11777;SDS011;5946;51.770;8.548;2023-03-23T13:44:38;8.17;;;4.20;;
11777;SDS011;5946;51.770;8.548;2023-03-23T13:47:14;8.10;;;4.10;;
11777;SDS011;5946;51.770;8.548;2023-03-23T13:49:46;6.07;;;3.93;;
11777;SDS011;5946;51.770;8.548;2023-03-23T13:52:17;5.73;;;4.37;;
11777;SDS011;5946;51.770;8.548;2023-03-23T13:54:45;7.13;;;4.57;;
11777;SDS011;5946;51.770;8.548;2023-03-23T13:57:20;7.13;;;4.73;;
11777;SDS011;5946;51.770;8.548;2023-03-23T13:59:47;6.83;;;4.93;;
11777;SDS011;5946;51.770;8.548;2023-03-23T14:05:07;9.10;;;5.70;;
11777;SDS011;5946;51.770;8.548;2023-03-23T14:07:49;9.57;;;5.50;;
11777;SDS011;5946;51.770;8.548;2023-03-23T14:10:16;11.50;;;5.93;;
11777;SDS011;5946;51.770;8.548;2023-03-23T14:12:43;8.40;;;5.53;;
11777;SDS011;5946;51.770;8.548;2023-03-23T14:15:11;9.20;;;5.60;;
11777;SDS011;5946;51.770;8.548;2023-03-23T14:17:42;11.27;;;6.23;;
11777;SDS011;5946;51.770;8.548;2023-03-23T14:20:09;9.17;;;6.70;;
11777;SDS011;5946;51.770;8.548;2023-03-23T14:22:43;9.17;;;6.50;;
11777;SDS011;5946;51.770;8.548;2023-03-23T14:25:16;9.93;;;6.90;;
11777;SDS011;5946;51.770;8.548;2023-03-23T14:27:43;10.53;;;7.27;;
11777;SDS011;5946;51.770;8.548;2023-03-23T14:30:16;8.67;;;6.37;;
11777;SDS011;5946;51.770;8.548;2023-03-23T14:32:42;9.13;;;6.40;;
11777;SDS011;5946;51.770;8.548;2023-03-23T14:35:12;9.50;;;7.10;;
11777;SDS011;5946;51.770;8.548;2023-03-23T14:37:39;8.07;;;7.20;;
11777;SDS011;5946;51.770;8.548;2023-03-23T14:40:05;8.93;;;6.67;;
11777;SDS011;5946;51.770;8.548;2023-03-23T14:42:33;8.17;;;6.50;;
11777;SDS011;5946;51.770;8.548;2023-03-23T14:45:00;9.00;;;6.83;;
11777;SDS011;5946;51.770;8.548;2023-03-23T14:47:30;8.20;;;5.43;;
11777;SDS011;5946;51.770;8.548;2023-03-23T14:49:57;7.70;;;5.80;;
11777;SDS011;5946;51.770;8.548;2023-03-23T14:52:28;7.93;;;4.97;;
11777;SDS011;5946;51.770;8.548;2023-03-23T14:55:06;6.67;;;4.90;;
11777;SDS011;5946;51.770;8.548;2023-03-23T14:57:33;6.20;;;4.53;;
11777;SDS011;5946;51.770;8.548;2023-03-23T14:59:59;5.80;;;4.00;;
11777;SDS011;5946;51.770;8.548;2023-03-23T15:04:55;5.13;;;3.90;;
11777;SDS011;5946;51.770;8.548;2023-03-23T15:07:22;5.90;;;3.90;;
11777;SDS011;5946;51.770;8.548;2023-03-23T15:09:50;6.33;;;4.80;;
11777;SDS011;5946;51.770;8.548;2023-03-23T15:12:23;7.47;;;3.77;;
11777;SDS011;5946;51.770;8.548;2023-03-23T15:14:51;5.87;;;4.10;;
11777;SDS011;5946;51.770;8.548;2023-03-23T15:17:19;6.47;;;4.60;;
11777;SDS011;5946;51.770;8.548;2023-03-23T15:19:45;5.93;;;4.40;;
11777;SDS011;5946;51.770;8.548;2023-03-23T15:24:43;8.20;;;5.50;;
11777;SDS011;5946;51.770;8.548;2023-03-23T15:27:14;7.40;;;5.47;;
11777;SDS011;5946;51.770;8.548;2023-03-23T15:29:47;7.53;;;5.87;;
11777;SDS011;5946;51.770;8.548;2023-03-23T15:32:19;8.73;;;6.60;;
11777;SDS011;5946;51.770;8.548;2023-03-23T15:34:45;9.43;;;6.87;;
11777;SDS011;5946;51.770;8.548;2023-03-23T15:37:22;8.83;;;7.13;;
11777;SDS011;5946;51.770;8.548;2023-03-23T15:39:49;9.67;;;6.70;;
11777;SDS011;5946;51.770;8.548;2023-03-23T15:42:20;10.90;;;7.27;;
11777;SDS011;5946;51.770;8.548;2023-03-23T15:44:54;10.43;;;7.30;;
11777;SDS011;5946;51.770;8.548;2023-03-23T15:47:20;9.40;;;7.57;;
11777;SDS011;5946;51.770;8.548;2023-03-23T15:49:46;6.70;;;6.00;;
11777;SDS011;5946;51.770;8.548;2023-03-23T15:52:14;6.87;;;5.67;;
11777;SDS011;5946;51.770;8.548;2023-03-23T15:54:47;9.30;;;5.27;;
11777;SDS011;5946;51.770;8.548;2023-03-23T15:57:13;7.07;;;4.87;;
11777;SDS011;5946;51.770;8.548;2023-03-23T15:59:39;5.53;;;4.20;;
11777;SDS011;5946;51.770;8.548;2023-03-23T16:02:05;4.30;;;3.90;;
11777;SDS011;5946;51.770;8.548;2023-03-23T16:04:31;5.33;;;3.80;;
11777;SDS011;5946;51.770;8.548;2023-03-23T16:06:57;4.40;;;3.40;;
11777;SDS011;5946;51.770;8.548;2023-03-23T16:09:25;6.37;;;3.90;;
11777;SDS011;5946;51.770;8.548;2023-03-23T16:11:51;5.23;;;4.13;;
11777;SDS011;5946;51.770;8.548;2023-03-23T16:14:17;3.57;;;3.10;;
11777;SDS011;5946;51.770;8.548;2023-03-23T16:16:43;3.33;;;3.00;;
11777;SDS011;5946;51.770;8.548;2023-03-23T16:19:11;3.30;;;3.00;;
11777;SDS011;5946;51.770;8.548;2023-03-23T16:21:38;3.23;;;2.93;;
11777;SDS011;5946;51.770;8.548;2023-03-23T16:24:04;4.47;;;3.30;;
11777;SDS011;5946;51.770;8.548;2023-03-23T16:26:30;6.37;;;3.80;;
11777;SDS011;5946;51.770;8.548;2023-03-23T16:28:56;6.00;;;3.47;;
11777;SDS011;5946;51.770;8.548;2023-03-23T16:31:22;5.60;;;3.33;;
11777;SDS011;5946;51.770;8.548;2023-03-23T16:33:48;5.37;;;3.20;;
11777;SDS011;5946;51.770;8.548;2023-03-23T16:36:14;5.50;;;3.10;;
11777;SDS011;5946;51.770;8.548;2023-03-23T16:38:40;4.93;;;3.60;;
11777;SDS011;5946;51.770;8.548;2023-03-23T16:41:06;7.43;;;3.60;;
11777;SDS011;5946;51.770;8.548;2023-03-23T16:43:33;4.50;;;3.10;;